sensor_id;sensor_type;location;lat;lon;timestamp;P1;durP1;ratioP1;P2;durP2;ratioP2
63034;SDS011;59750;53.356;-1.458;2023-01-19T00:01:56;2.13;;;1.70;;
63034;SDS011;59750;53.356;-1.458;2023-01-19T00:04:22;5.22;;;1.48;;
63034;SDS011;59750;53.356;-1.458;2023-01-19T00:06:48;3.25;;;2.17;;
63034;SDS011;59750;53.356;-1.458;2023-01-19T00:09:14;2.90;;;2.00;;
63034;SDS011;59750;53.356;-1.458;2023-01-19T00:11:41;4.47;;;2.30;;
63034;SDS011;59750;53.356;-1.458;2023-01-19T00:14:06;6.65;;;1.75;;
63034;SDS011;59750;53.356;-1.458;2023-01-19T00:16:32;3.95;;;2.05;;
63034;SDS011;59750;53.356;-1.458;2023-01-19T00:18:58;4.82;;;2.15;;
63034;SDS011;59750;53.356;-1.458;2023-01-19T00:21:25;5.47;;;1.77;;
63034;SDS011;59750;53.356;-1.458;2023-01-19T00:23:50;5.18;;;2.00;;
63034;SDS011;59750;53.356;-1.458;2023-01-19T00:26:19;4.68;;;1.90;;
63034;SDS011;59750;53.356;-1.458;2023-01-19T00:28:46;3.70;;;1.95;;
63034;SDS011;59750;53.356;-1.458;2023-01-19T00:31:14;6.63;;;1.65;;
63034;SDS011;59750;53.356;-1.458;2023-01-19T00:33:40;2.42;;;1.80;;
63034;SDS011;59750;53.356;-1.458;2023-01-19T00:36:05;4.38;;;1.90;;
63034;SDS011;59750;53.356;-1.458;2023-01-19T00:38:32;2.35;;;1.52;;
63034;SDS011;59750;53.356;-1.458;2023-01-19T00:40:58;4.30;;;1.95;;
63034;SDS011;59750;53.356;-1.458;2023-01-19T00:43:24;4.00;;;1.80;;
63034;SDS011;59750;53.356;-1.458;2023-01-19T00:45:50;4.97;;;1.65;;
63034;SDS011;59750;53.356;-1.458;2023-01-19T00:48:15;2.83;;;2.00;;
63034;SDS011;59750;53.356;-1.458;2023-01-19T00:50:41;4.43;;;1.77;;
63034;SDS011;59750;53.356;-1.458;2023-01-19T00:53:07;4.47;;;2.17;;
63034;SDS011;59750;53.356;-1.458;2023-01-19T00:55:33;3.70;;;2.10;;
63034;SDS011;59750;53.356;-1.458;2023-01-19T00:58:00;3.35;;;1.90;;
63034;SDS011;59750;53.356;-1.458;2023-01-19T01:00:27;2.03;;;1.80;;
63034;SDS011;59750;53.356;-1.458;2023-01-19T01:02:53;2.75;;;1.98;;
63034;SDS011;59750;53.356;-1.458;2023-01-19T01:05:20;3.47;;;1.42;;
63034;SDS011;59750;53.356;-1.458;2023-01-19T01:07:46;5.57;;;1.70;;
63034;SDS011;59750;53.356;-1.458;2023-01-19T01:10:15;4.25;;;1.83;;
63034;SDS011;59750;53.356;-1.458;2023-01-19T01:12:43;4.80;;;1.73;;
63034;SDS011;59750;53.356;-1.458;2023-01-19T01:15:12;1.63;;;1.17;;
63034;SDS011;59750;53.356;-1.458;2023-01-19T01:17:39;2.30;;;1.10;;
63034;SDS011;59750;53.356;-1.458;2023-01-19T01:20:18;4.82;;;1.40;;
63034;SDS011;59750;53.356;-1.458;2023-01-19T01:22:47;2.30;;;1.30;;
63034;SDS011;59750;53.356;-1.458;2023-01-19T01:25:17;1.98;;;1.58;;
63034;SDS011;59750;53.356;-1.458;2023-01-19T01:27:46;3.20;;;1.17;;
63034;SDS011;59750;53.356;-1.458;2023-01-19T01:30:13;2.20;;;1.10;;
63034;SDS011;59750;53.356;-1.458;2023-01-19T01:32:39;2.50;;;1.10;;
63034;SDS011;59750;53.356;-1.458;2023-01-19T01:35:06;3.20;;;1.38;;
63034;SDS011;59750;53.356;-1.458;2023-01-19T01:37:34;2.65;;;1.58;;
63034;SDS011;59750;53.356;-1.458;2023-01-19T01:40:00;4.03;;;1.10;;
63034;SDS011;59750;53.356;-1.458;2023-01-19T01:42:28;2.42;;;1.27;;
63034;SDS011;59750;53.356;-1.458;2023-01-19T01:44:57;5.53;;;1.33;;
63034;SDS011;59750;53.356;-1.458;2023-01-19T01:47:27;8.75;;;1.75;;
63034;SDS011;59750;53.356;-1.458;2023-01-19T01:50:04;2.80;;;1.30;;
63034;SDS011;59750;53.356;-1.458;2023-01-19T01:52:42;3.85;;;1.73;;
63034;SDS011;59750;53.356;-1.458;2023-01-19T01:55:13;2.80;;;1.08;;
63034;SDS011;59750;53.356;-1.458;2023-01-19T01:57:42;3.03;;;1.40;;
63034;SDS011;59750;53.356;-1.458;2023-01-19T02:00:12;3.58;;;1.17;;
63034;SDS011;59750;53.356;-1.458;2023-01-19T02:02:38;2.45;;;1.58;;
63034;SDS011;59750;53.356;-1.458;2023-01-19T02:05:25;2.42;;;1.20;;
63034;SDS011;59750;53.356;-1.458;2023-01-19T02:07:56;6.40;;;1.52;;
63034;SDS011;59750;53.356;-1.458;2023-01-19T02:11:00;2.70;;;1.50;;
63034;SDS011;59750;53.356;-1.458;2023-01-19T02:13:46;3.03;;;1.40;;
63034;SDS011;59750;53.356;-1.458;2023-01-19T02:16:13;7.28;;;1.77;;
63034;SDS011;59750;53.356;-1.458;2023-01-19T02:18:40;2.60;;;1.30;;
63034;SDS011;59750;53.356;-1.458;2023-01-19T02:21:13;3.13;;;1.48;;
63034;SDS011;59750;53.356;-1.458;2023-01-19T02:23:41;5.88;;;1.73;;
63034;SDS011;59750;53.356;-1.458;2023-01-19T02:26:11;2.75;;;1.35;;
63034;SDS011;59750;53.356;-1.458;2023-01-19T02:28:43;3.65;;;1.40;;
63034;SDS011;59750;53.356;-1.458;2023-01-19T02:31:14;2.08;;;1.30;;
63034;SDS011;59750;53.356;-1.458;2023-01-19T02:33:41;2.72;;;1.77;;
63034;SDS011;59750;53.356;-1.458;2023-01-19T02:36:08;3.65;;;1.75;;
63034;SDS011;59750;53.356;-1.458;2023-01-19T02:38:36;2.35;;;1.88;;
63034;SDS011;59750;53.356;-1.458;2023-01-19T02:41:05;3.03;;;1.65;;
63034;SDS011;59750;53.356;-1.458;2023-01-19T02:43:33;2.83;;;1.88;;
63034;SDS011;59750;53.356;-1.458;2023-01-19T02:46:01;5.68;;;2.08;;
63034;SDS011;59750;53.356;-1.458;2023-01-19T02:48:30;2.35;;;1.83;;
63034;SDS011;59750;53.356;-1.458;2023-01-19T02:50:58;5.05;;;1.60;;
63034;SDS011;59750;53.356;-1.458;2023-01-19T03:15:44;5.07;;;2.00;;
63034;SDS011;59750;53.356;-1.458;2023-01-19T03:18:15;2.90;;;1.60;;
63034;SDS011;59750;53.356;-1.458;2023-01-19T03:20:45;3.97;;;2.33;;
63034;SDS011;59750;53.356;-1.458;2023-01-19T03:23:13;6.38;;;2.53;;
63034;SDS011;59750;53.356;-1.458;2023-01-19T03:25:41;4.88;;;2.28;;
63034;SDS011;59750;53.356;-1.458;2023-01-19T03:28:10;7.03;;;2.13;;
63034;SDS011;59750;53.356;-1.458;2023-01-19T03:30:41;5.80;;;2.10;;
63034;SDS011;59750;53.356;-1.458;2023-01-19T03:33:13;6.20;;;2.25;;
63034;SDS011;59750;53.356;-1.458;2023-01-19T03:38:14;5.80;;;2.13;;
63034;SDS011;59750;53.356;-1.458;2023-01-19T03:40:44;3.05;;;1.83;;
63034;SDS011;59750;53.356;-1.458;2023-01-19T03:43:14;3.33;;;2.38;;
63034;SDS011;59750;53.356;-1.458;2023-01-19T03:45:44;4.68;;;2.00;;
63034;SDS011;59750;53.356;-1.458;2023-01-19T03:48:12;6.35;;;2.25;;
63034;SDS011;59750;53.356;-1.458;2023-01-19T03:50:44;7.63;;;2.75;;
63034;SDS011;59750;53.356;-1.458;2023-01-19T03:53:12;4.22;;;2.60;;
63034;SDS011;59750;53.356;-1.458;2023-01-19T03:55:41;3.10;;;2.33;;
63034;SDS011;59750;53.356;-1.458;2023-01-19T03:58:10;5.40;;;2.00;;
63034;SDS011;59750;53.356;-1.458;2023-01-19T04:00:36;4.15;;;2.40;;
63034;SDS011;59750;53.356;-1.458;2023-01-19T04:03:03;4.50;;;2.13;;
63034;SDS011;59750;53.356;-1.458;2023-01-19T04:05:30;8.07;;;2.53;;
63034;SDS011;59750;53.356;-1.458;2023-01-19T04:07:58;4.82;;;2.72;;
63034;SDS011;59750;53.356;-1.458;2023-01-19T04:10:23;6.68;;;2.70;;
63034;SDS011;59750;53.356;-1.458;2023-01-19T04:12:56;7.88;;;2.63;;
63034;SDS011;59750;53.356;-1.458;2023-01-19T04:15:23;4.40;;;3.10;;
63034;SDS011;59750;53.356;-1.458;2023-01-19T04:17:50;4.78;;;2.60;;
63034;SDS011;59750;53.356;-1.458;2023-01-19T04:20:17;5.53;;;2.83;;
63034;SDS011;59750;53.356;-1.458;2023-01-19T04:22:43;4.78;;;2.65;;
63034;SDS011;59750;53.356;-1.458;2023-01-19T04:25:09;5.18;;;3.25;;
63034;SDS011;59750;53.356;-1.458;2023-01-19T04:27:35;6.65;;;3.30;;
63034;SDS011;59750;53.356;-1.458;2023-01-19T04:30:02;6.47;;;2.85;;
63034;SDS011;59750;53.356;-1.458;2023-01-19T04:32:29;7.90;;;2.97;;
63034;SDS011;59750;53.356;-1.458;2023-01-19T04:34:57;6.63;;;2.63;;
63034;SDS011;59750;53.356;-1.458;2023-01-19T04:37:23;7.35;;;3.00;;
63034;SDS011;59750;53.356;-1.458;2023-01-19T04:39:49;6.47;;;2.78;;
63034;SDS011;59750;53.356;-1.458;2023-01-19T04:42:15;7.55;;;3.40;;
63034;SDS011;59750;53.356;-1.458;2023-01-19T04:44:41;6.90;;;3.50;;
63034;SDS011;59750;53.356;-1.458;2023-01-19T04:47:07;6.80;;;2.50;;
63034;SDS011;59750;53.356;-1.458;2023-01-19T04:49:33;6.15;;;3.40;;
63034;SDS011;59750;53.356;-1.458;2023-01-19T04:52:02;3.78;;;2.85;;
63034;SDS011;59750;53.356;-1.458;2023-01-19T04:54:30;6.05;;;2.90;;
63034;SDS011;59750;53.356;-1.458;2023-01-19T04:56:56;7.32;;;3.38;;
63034;SDS011;59750;53.356;-1.458;2023-01-19T04:59:23;7.35;;;3.33;;
63034;SDS011;59750;53.356;-1.458;2023-01-19T05:01:48;5.50;;;2.67;;
63034;SDS011;59750;53.356;-1.458;2023-01-19T05:04:15;8.02;;;3.28;;
63034;SDS011;59750;53.356;-1.458;2023-01-19T05:06:40;7.47;;;3.33;;
63034;SDS011;59750;53.356;-1.458;2023-01-19T05:09:06;9.90;;;3.38;;
63034;SDS011;59750;53.356;-1.458;2023-01-19T05:11:34;8.35;;;3.58;;
63034;SDS011;59750;53.356;-1.458;2023-01-19T05:14:00;13.50;;;3.92;;
63034;SDS011;59750;53.356;-1.458;2023-01-19T05:16:26;5.80;;;3.30;;
63034;SDS011;59750;53.356;-1.458;2023-01-19T05:18:52;9.63;;;3.83;;
63034;SDS011;59750;53.356;-1.458;2023-01-19T05:21:18;8.45;;;3.30;;
63034;SDS011;59750;53.356;-1.458;2023-01-19T05:23:45;7.15;;;3.63;;
63034;SDS011;59750;53.356;-1.458;2023-01-19T05:26:11;7.68;;;4.05;;
63034;SDS011;59750;53.356;-1.458;2023-01-19T05:28:38;8.50;;;3.58;;
63034;SDS011;59750;53.356;-1.458;2023-01-19T05:31:04;11.70;;;3.90;;
63034;SDS011;59750;53.356;-1.458;2023-01-19T05:33:30;10.98;;;4.82;;
63034;SDS011;59750;53.356;-1.458;2023-01-19T05:35:56;9.18;;;3.92;;
63034;SDS011;59750;53.356;-1.458;2023-01-19T05:38:22;9.18;;;4.15;;
63034;SDS011;59750;53.356;-1.458;2023-01-19T05:40:48;9.60;;;5.07;;
63034;SDS011;59750;53.356;-1.458;2023-01-19T05:43:14;12.30;;;4.70;;
63034;SDS011;59750;53.356;-1.458;2023-01-19T05:45:40;8.82;;;4.65;;
63034;SDS011;59750;53.356;-1.458;2023-01-19T05:48:06;7.18;;;4.32;;
63034;SDS011;59750;53.356;-1.458;2023-01-19T05:50:33;12.93;;;4.82;;
63034;SDS011;59750;53.356;-1.458;2023-01-19T05:53:00;11.02;;;5.55;;
63034;SDS011;59750;53.356;-1.458;2023-01-19T05:55:27;8.68;;;4.38;;
63034;SDS011;59750;53.356;-1.458;2023-01-19T05:57:53;11.15;;;4.45;;
63034;SDS011;59750;53.356;-1.458;2023-01-19T06:00:22;8.48;;;4.65;;
63034;SDS011;59750;53.356;-1.458;2023-01-19T06:02:49;9.60;;;4.45;;
63034;SDS011;59750;53.356;-1.458;2023-01-19T06:05:15;15.30;;;5.07;;
63034;SDS011;59750;53.356;-1.458;2023-01-19T06:07:41;11.55;;;4.55;;
63034;SDS011;59750;53.356;-1.458;2023-01-19T06:10:07;11.65;;;5.63;;
63034;SDS011;59750;53.356;-1.458;2023-01-19T06:12:35;7.65;;;4.85;;
63034;SDS011;59750;53.356;-1.458;2023-01-19T06:15:01;8.52;;;4.70;;
63034;SDS011;59750;53.356;-1.458;2023-01-19T06:17:27;9.45;;;4.97;;
63034;SDS011;59750;53.356;-1.458;2023-01-19T06:19:53;10.52;;;4.97;;
63034;SDS011;59750;53.356;-1.458;2023-01-19T06:22:20;12.02;;;4.85;;
63034;SDS011;59750;53.356;-1.458;2023-01-19T06:24:45;9.65;;;5.07;;
63034;SDS011;59750;53.356;-1.458;2023-01-19T06:27:11;11.63;;;6.00;;
63034;SDS011;59750;53.356;-1.458;2023-01-19T06:29:38;12.95;;;5.03;;
63034;SDS011;59750;53.356;-1.458;2023-01-19T06:32:04;8.88;;;5.10;;
63034;SDS011;59750;53.356;-1.458;2023-01-19T06:34:30;13.75;;;6.25;;
63034;SDS011;59750;53.356;-1.458;2023-01-19T06:36:58;11.48;;;5.55;;
63034;SDS011;59750;53.356;-1.458;2023-01-19T06:39:24;10.02;;;6.03;;
63034;SDS011;59750;53.356;-1.458;2023-01-19T06:41:50;8.32;;;5.38;;
63034;SDS011;59750;53.356;-1.458;2023-01-19T06:44:16;8.48;;;5.70;;
63034;SDS011;59750;53.356;-1.458;2023-01-19T06:46:43;13.77;;;6.85;;
63034;SDS011;59750;53.356;-1.458;2023-01-19T06:49:09;10.88;;;5.55;;
63034;SDS011;59750;53.356;-1.458;2023-01-19T06:51:34;14.20;;;5.93;;
63034;SDS011;59750;53.356;-1.458;2023-01-19T06:54:00;11.00;;;5.63;;
63034;SDS011;59750;53.356;-1.458;2023-01-19T06:56:28;10.43;;;6.18;;
63034;SDS011;59750;53.356;-1.458;2023-01-19T06:58:54;13.20;;;6.53;;
63034;SDS011;59750;53.356;-1.458;2023-01-19T07:01:20;9.02;;;5.32;;
63034;SDS011;59750;53.356;-1.458;2023-01-19T07:03:46;9.98;;;5.63;;
63034;SDS011;59750;53.356;-1.458;2023-01-19T07:06:12;17.30;;;6.40;;
63034;SDS011;59750;53.356;-1.458;2023-01-19T07:08:38;11.32;;;5.03;;
63034;SDS011;59750;53.356;-1.458;2023-01-19T07:11:06;10.75;;;5.88;;
63034;SDS011;59750;53.356;-1.458;2023-01-19T07:13:35;9.57;;;5.43;;
63034;SDS011;59750;53.356;-1.458;2023-01-19T07:16:05;11.85;;;6.07;;
63034;SDS011;59750;53.356;-1.458;2023-01-19T07:18:33;12.07;;;5.07;;
63034;SDS011;59750;53.356;-1.458;2023-01-19T07:21:00;11.23;;;6.72;;
63034;SDS011;59750;53.356;-1.458;2023-01-19T07:23:25;10.90;;;6.82;;
63034;SDS011;59750;53.356;-1.458;2023-01-19T07:25:55;11.45;;;6.35;;
63034;SDS011;59750;53.356;-1.458;2023-01-19T07:28:22;10.40;;;6.07;;
63034;SDS011;59750;53.356;-1.458;2023-01-19T07:30:50;12.25;;;6.00;;
63034;SDS011;59750;53.356;-1.458;2023-01-19T07:33:18;10.52;;;5.32;;
63034;SDS011;59750;53.356;-1.458;2023-01-19T07:35:47;12.43;;;6.10;;
63034;SDS011;59750;53.356;-1.458;2023-01-19T07:38:14;11.88;;;6.60;;
63034;SDS011;59750;53.356;-1.458;2023-01-19T07:40:43;13.05;;;6.10;;
63034;SDS011;59750;53.356;-1.458;2023-01-19T07:43:12;13.98;;;7.20;;
63034;SDS011;59750;53.356;-1.458;2023-01-19T07:45:40;11.70;;;5.97;;
63034;SDS011;59750;53.356;-1.458;2023-01-19T07:48:07;13.50;;;7.70;;
63034;SDS011;59750;53.356;-1.458;2023-01-19T07:50:33;14.80;;;6.97;;
63034;SDS011;59750;53.356;-1.458;2023-01-19T07:53:06;18.48;;;7.57;;
63034;SDS011;59750;53.356;-1.458;2023-01-19T07:55:33;13.52;;;8.35;;
63034;SDS011;59750;53.356;-1.458;2023-01-19T07:58:00;14.55;;;6.82;;
63034;SDS011;59750;53.356;-1.458;2023-01-19T08:00:31;13.15;;;7.63;;
63034;SDS011;59750;53.356;-1.458;2023-01-19T08:03:00;13.80;;;7.40;;
63034;SDS011;59750;53.356;-1.458;2023-01-19T08:05:28;14.40;;;7.55;;
63034;SDS011;59750;53.356;-1.458;2023-01-19T08:07:55;13.50;;;7.47;;
63034;SDS011;59750;53.356;-1.458;2023-01-19T08:10:23;11.48;;;6.55;;
63034;SDS011;59750;53.356;-1.458;2023-01-19T08:12:52;12.43;;;6.85;;
63034;SDS011;59750;53.356;-1.458;2023-01-19T08:15:19;12.27;;;6.88;;
63034;SDS011;59750;53.356;-1.458;2023-01-19T08:20:35;14.10;;;8.07;;
63034;SDS011;59750;53.356;-1.458;2023-01-19T08:23:02;16.15;;;8.63;;
63034;SDS011;59750;53.356;-1.458;2023-01-19T08:27:59;15.80;;;7.82;;
63034;SDS011;59750;53.356;-1.458;2023-01-19T08:30:25;14.00;;;8.23;;
63034;SDS011;59750;53.356;-1.458;2023-01-19T08:32:52;10.68;;;7.32;;
63034;SDS011;59750;53.356;-1.458;2023-01-19T08:35:22;12.85;;;7.78;;
63034;SDS011;59750;53.356;-1.458;2023-01-19T08:37:50;12.05;;;7.35;;
63034;SDS011;59750;53.356;-1.458;2023-01-19T08:40:16;17.13;;;8.70;;
63034;SDS011;59750;53.356;-1.458;2023-01-19T08:42:42;12.77;;;7.28;;
63034;SDS011;59750;53.356;-1.458;2023-01-19T08:45:09;16.13;;;6.80;;
63034;SDS011;59750;53.356;-1.458;2023-01-19T08:47:36;9.10;;;6.13;;
63034;SDS011;59750;53.356;-1.458;2023-01-19T08:50:02;7.28;;;4.47;;
63034;SDS011;59750;53.356;-1.458;2023-01-19T08:52:29;7.20;;;3.88;;
63034;SDS011;59750;53.356;-1.458;2023-01-19T08:54:55;12.32;;;4.72;;
63034;SDS011;59750;53.356;-1.458;2023-01-19T08:57:22;8.48;;;3.90;;
63034;SDS011;59750;53.356;-1.458;2023-01-19T08:59:48;6.15;;;3.28;;
63034;SDS011;59750;53.356;-1.458;2023-01-19T09:02:14;8.88;;;3.70;;
63034;SDS011;59750;53.356;-1.458;2023-01-19T09:04:40;5.10;;;3.75;;
63034;SDS011;59750;53.356;-1.458;2023-01-19T09:07:07;7.13;;;4.03;;
63034;SDS011;59750;53.356;-1.458;2023-01-19T09:09:33;12.77;;;5.50;;
63034;SDS011;59750;53.356;-1.458;2023-01-19T09:12:02;8.50;;;4.57;;
63034;SDS011;59750;53.356;-1.458;2023-01-19T09:14:28;8.43;;;4.97;;
63034;SDS011;59750;53.356;-1.458;2023-01-19T09:16:55;7.82;;;4.15;;
63034;SDS011;59750;53.356;-1.458;2023-01-19T09:19:21;10.23;;;4.32;;
63034;SDS011;59750;53.356;-1.458;2023-01-19T09:21:48;7.90;;;4.93;;
63034;SDS011;59750;53.356;-1.458;2023-01-19T09:24:15;9.32;;;4.72;;
63034;SDS011;59750;53.356;-1.458;2023-01-19T09:26:41;7.65;;;4.90;;
63034;SDS011;59750;53.356;-1.458;2023-01-19T09:29:08;10.43;;;5.18;;
63034;SDS011;59750;53.356;-1.458;2023-01-19T09:31:36;8.30;;;4.07;;
63034;SDS011;59750;53.356;-1.458;2023-01-19T09:34:05;7.65;;;4.60;;
63034;SDS011;59750;53.356;-1.458;2023-01-19T09:36:31;8.25;;;4.60;;
63034;SDS011;59750;53.356;-1.458;2023-01-19T09:38:56;8.40;;;4.68;;
63034;SDS011;59750;53.356;-1.458;2023-01-19T09:41:22;5.65;;;3.75;;
63034;SDS011;59750;53.356;-1.458;2023-01-19T09:43:53;6.28;;;3.92;;
63034;SDS011;59750;53.356;-1.458;2023-01-19T09:49:11;6.13;;;3.95;;
63034;SDS011;59750;53.356;-1.458;2023-01-19T09:51:43;6.78;;;4.40;;
63034;SDS011;59750;53.356;-1.458;2023-01-19T09:54:13;8.27;;;4.53;;
63034;SDS011;59750;53.356;-1.458;2023-01-19T09:56:42;7.13;;;4.20;;
63034;SDS011;59750;53.356;-1.458;2023-01-19T10:04:29;5.63;;;3.88;;
63034;SDS011;59750;53.356;-1.458;2023-01-19T10:10:06;4.82;;;2.75;;
63034;SDS011;59750;53.356;-1.458;2023-01-19T10:17:45;5.43;;;3.05;;
63034;SDS011;59750;53.356;-1.458;2023-01-19T10:20:30;4.80;;;3.30;;
63034;SDS011;59750;53.356;-1.458;2023-01-19T10:23:03;4.40;;;3.20;;
63034;SDS011;59750;53.356;-1.458;2023-01-19T10:25:42;6.45;;;3.85;;
63034;SDS011;59750;53.356;-1.458;2023-01-19T10:28:09;5.90;;;3.50;;
63034;SDS011;59750;53.356;-1.458;2023-01-19T10:30:38;5.18;;;3.08;;
63034;SDS011;59750;53.356;-1.458;2023-01-19T10:33:10;4.35;;;2.63;;
63034;SDS011;59750;53.356;-1.458;2023-01-19T10:35:38;4.35;;;2.47;;
63034;SDS011;59750;53.356;-1.458;2023-01-19T10:38:04;2.70;;;2.08;;
63034;SDS011;59750;53.356;-1.458;2023-01-19T10:40:35;3.13;;;2.10;;
63034;SDS011;59750;53.356;-1.458;2023-01-19T10:45:58;4.65;;;2.70;;
63034;SDS011;59750;53.356;-1.458;2023-01-19T10:48:24;5.60;;;2.30;;
63034;SDS011;59750;53.356;-1.458;2023-01-19T10:51:00;4.53;;;2.60;;
63034;SDS011;59750;53.356;-1.458;2023-01-19T10:53:28;5.30;;;2.67;;
63034;SDS011;59750;53.356;-1.458;2023-01-19T10:58:39;4.13;;;2.60;;
63034;SDS011;59750;53.356;-1.458;2023-01-19T11:01:13;4.45;;;2.67;;
63034;SDS011;59750;53.356;-1.458;2023-01-19T11:03:41;4.07;;;2.30;;
63034;SDS011;59750;53.356;-1.458;2023-01-19T11:11:07;4.00;;;2.28;;
63034;SDS011;59750;53.356;-1.458;2023-01-19T11:13:34;4.05;;;2.50;;
63034;SDS011;59750;53.356;-1.458;2023-01-19T11:18:45;3.95;;;2.28;;
63034;SDS011;59750;53.356;-1.458;2023-01-19T11:21:17;5.70;;;1.98;;
63034;SDS011;59750;53.356;-1.458;2023-01-19T11:23:50;5.20;;;2.42;;
63034;SDS011;59750;53.356;-1.458;2023-01-19T11:26:24;5.82;;;2.30;;
63034;SDS011;59750;53.356;-1.458;2023-01-19T11:29:14;4.82;;;2.10;;
63034;SDS011;59750;53.356;-1.458;2023-01-19T11:31:45;3.40;;;2.10;;
63034;SDS011;59750;53.356;-1.458;2023-01-19T11:37:02;4.47;;;1.98;;
63034;SDS011;59750;53.356;-1.458;2023-01-19T11:39:50;2.85;;;1.45;;
63034;SDS011;59750;53.356;-1.458;2023-01-19T11:42:19;3.03;;;1.83;;
63034;SDS011;59750;53.356;-1.458;2023-01-19T11:44:50;4.90;;;2.22;;
63034;SDS011;59750;53.356;-1.458;2023-01-19T11:50:01;3.50;;;1.40;;
63034;SDS011;59750;53.356;-1.458;2023-01-19T11:57:47;3.15;;;1.30;;
63034;SDS011;59750;53.356;-1.458;2023-01-19T12:03:07;3.45;;;1.65;;
63034;SDS011;59750;53.356;-1.458;2023-01-19T12:05:57;3.22;;;1.90;;
63034;SDS011;59750;53.356;-1.458;2023-01-19T12:08:32;3.72;;;2.00;;
63034;SDS011;59750;53.356;-1.458;2023-01-19T12:11:20;2.08;;;1.48;;
63034;SDS011;59750;53.356;-1.458;2023-01-19T12:13:51;4.63;;;1.50;;
63034;SDS011;59750;53.356;-1.458;2023-01-19T12:16:19;2.33;;;1.50;;
63034;SDS011;59750;53.356;-1.458;2023-01-19T12:18:51;3.03;;;1.52;;
63034;SDS011;59750;53.356;-1.458;2023-01-19T12:21:22;4.03;;;1.38;;
63034;SDS011;59750;53.356;-1.458;2023-01-19T12:26:36;5.25;;;2.40;;
63034;SDS011;59750;53.356;-1.458;2023-01-19T12:29:12;4.13;;;1.80;;
63034;SDS011;59750;53.356;-1.458;2023-01-19T12:31:40;4.43;;;1.83;;
63034;SDS011;59750;53.356;-1.458;2023-01-19T12:36:58;4.13;;;2.15;;
63034;SDS011;59750;53.356;-1.458;2023-01-19T12:44:41;4.80;;;2.17;;
63034;SDS011;59750;53.356;-1.458;2023-01-19T12:49:42;7.10;;;2.25;;
63034;SDS011;59750;53.356;-1.458;2023-01-19T12:54:39;3.08;;;1.98;;
63034;SDS011;59750;53.356;-1.458;2023-01-19T12:57:18;4.00;;;2.10;;
63034;SDS011;59750;53.356;-1.458;2023-01-19T12:59:56;3.40;;;2.00;;
63034;SDS011;59750;53.356;-1.458;2023-01-19T13:13:31;5.03;;;1.77;;
63034;SDS011;59750;53.356;-1.458;2023-01-19T13:24:05;3.35;;;1.70;;
63034;SDS011;59750;53.356;-1.458;2023-01-19T13:26:35;2.40;;;1.70;;
63034;SDS011;59750;53.356;-1.458;2023-01-19T13:29:05;3.33;;;1.67;;
63034;SDS011;59750;53.356;-1.458;2023-01-19T13:31:37;2.72;;;1.83;;
63034;SDS011;59750;53.356;-1.458;2023-01-19T13:34:13;4.07;;;1.80;;
63034;SDS011;59750;53.356;-1.458;2023-01-19T13:36:43;3.47;;;1.77;;
63034;SDS011;59750;53.356;-1.458;2023-01-19T13:39:14;3.30;;;1.85;;
63034;SDS011;59750;53.356;-1.458;2023-01-19T13:41:42;1.92;;;1.60;;
63034;SDS011;59750;53.356;-1.458;2023-01-19T13:44:12;2.10;;;1.60;;
63034;SDS011;59750;53.356;-1.458;2023-01-19T13:46:49;2.20;;;1.77;;
63034;SDS011;59750;53.356;-1.458;2023-01-19T13:57:26;4.32;;;2.65;;
63034;SDS011;59750;53.356;-1.458;2023-01-19T14:05:23;5.82;;;2.75;;
63034;SDS011;59750;53.356;-1.458;2023-01-19T14:10:40;6.57;;;3.33;;
63034;SDS011;59750;53.356;-1.458;2023-01-19T14:15:55;7.72;;;4.07;;
63034;SDS011;59750;53.356;-1.458;2023-01-19T14:18:26;6.70;;;4.47;;
63034;SDS011;59750;53.356;-1.458;2023-01-19T14:31:41;8.70;;;4.30;;
63034;SDS011;59750;53.356;-1.458;2023-01-19T14:40:12;5.30;;;3.67;;
63034;SDS011;59750;53.356;-1.458;2023-01-19T14:42:59;6.25;;;3.97;;
63034;SDS011;59750;53.356;-1.458;2023-01-19T14:45:33;8.75;;;3.80;;
63034;SDS011;59750;53.356;-1.458;2023-01-19T14:48:04;5.32;;;3.88;;
63034;SDS011;59750;53.356;-1.458;2023-01-19T14:50:40;10.18;;;4.57;;
63034;SDS011;59750;53.356;-1.458;2023-01-19T14:53:15;5.82;;;4.07;;
63034;SDS011;59750;53.356;-1.458;2023-01-19T14:55:47;6.05;;;3.97;;
63034;SDS011;59750;53.356;-1.458;2023-01-19T14:58:33;8.20;;;4.32;;
63034;SDS011;59750;53.356;-1.458;2023-01-19T15:01:00;7.20;;;3.60;;
63034;SDS011;59750;53.356;-1.458;2023-01-19T15:03:27;7.28;;;3.65;;
63034;SDS011;59750;53.356;-1.458;2023-01-19T15:05:56;4.60;;;3.30;;
63034;SDS011;59750;53.356;-1.458;2023-01-19T15:08:31;9.32;;;3.97;;
63034;SDS011;59750;53.356;-1.458;2023-01-19T15:11:07;6.40;;;3.30;;
63034;SDS011;59750;53.356;-1.458;2023-01-19T15:13:36;7.85;;;3.58;;
63034;SDS011;59750;53.356;-1.458;2023-01-19T15:16:06;4.03;;;2.88;;
63034;SDS011;59750;53.356;-1.458;2023-01-19T15:18:34;4.22;;;3.05;;
63034;SDS011;59750;53.356;-1.458;2023-01-19T15:21:01;3.80;;;2.60;;
63034;SDS011;59750;53.356;-1.458;2023-01-19T15:23:28;3.95;;;2.42;;
63034;SDS011;59750;53.356;-1.458;2023-01-19T15:25:58;7.70;;;2.95;;
63034;SDS011;59750;53.356;-1.458;2023-01-19T15:28:25;5.63;;;2.92;;
63034;SDS011;59750;53.356;-1.458;2023-01-19T15:30:52;4.72;;;2.47;;
63034;SDS011;59750;53.356;-1.458;2023-01-19T15:33:22;3.90;;;2.00;;
63034;SDS011;59750;53.356;-1.458;2023-01-19T15:35:50;6.80;;;2.92;;
63034;SDS011;59750;53.356;-1.458;2023-01-19T15:38:18;2.70;;;1.80;;
63034;SDS011;59750;53.356;-1.458;2023-01-19T15:40:45;3.97;;;1.88;;
63034;SDS011;59750;53.356;-1.458;2023-01-19T15:43:13;2.47;;;1.42;;
63034;SDS011;59750;53.356;-1.458;2023-01-19T15:45:42;2.70;;;1.50;;
63034;SDS011;59750;53.356;-1.458;2023-01-19T15:48:27;3.17;;;1.42;;
63034;SDS011;59750;53.356;-1.458;2023-01-19T15:50:54;5.35;;;1.40;;
63034;SDS011;59750;53.356;-1.458;2023-01-19T15:53:20;2.28;;;1.23;;
63034;SDS011;59750;53.356;-1.458;2023-01-19T15:55:49;2.85;;;1.30;;
63034;SDS011;59750;53.356;-1.458;2023-01-19T15:58:18;3.22;;;1.30;;
63034;SDS011;59750;53.356;-1.458;2023-01-19T16:00:45;3.50;;;1.70;;
63034;SDS011;59750;53.356;-1.458;2023-01-19T16:03:20;4.60;;;1.73;;
63034;SDS011;59750;53.356;-1.458;2023-01-19T16:05:46;2.35;;;1.05;;
63034;SDS011;59750;53.356;-1.458;2023-01-19T16:08:12;2.97;;;1.05;;
63034;SDS011;59750;53.356;-1.458;2023-01-19T16:10:39;2.55;;;1.27;;
63034;SDS011;59750;53.356;-1.458;2023-01-19T16:13:07;6.28;;;1.25;;
63034;SDS011;59750;53.356;-1.458;2023-01-19T16:15:35;2.03;;;1.20;;
63034;SDS011;59750;53.356;-1.458;2023-01-19T16:18:02;1.92;;;0.95;;
63034;SDS011;59750;53.356;-1.458;2023-01-19T16:20:30;1.35;;;1.02;;
63034;SDS011;59750;53.356;-1.458;2023-01-19T16:22:56;1.30;;;0.88;;
63034;SDS011;59750;53.356;-1.458;2023-01-19T16:25:24;1.15;;;1.00;;
63034;SDS011;59750;53.356;-1.458;2023-01-19T16:27:50;3.00;;;0.88;;
63034;SDS011;59750;53.356;-1.458;2023-01-19T16:30:17;3.08;;;1.40;;
63034;SDS011;59750;53.356;-1.458;2023-01-19T16:32:44;7.63;;;1.20;;
63034;SDS011;59750;53.356;-1.458;2023-01-19T16:35:11;4.10;;;1.20;;
63034;SDS011;59750;53.356;-1.458;2023-01-19T16:37:40;4.07;;;1.20;;
63034;SDS011;59750;53.356;-1.458;2023-01-19T16:40:07;2.72;;;1.00;;
63034;SDS011;59750;53.356;-1.458;2023-01-19T16:42:33;1.83;;;1.05;;
63034;SDS011;59750;53.356;-1.458;2023-01-19T16:44:59;2.10;;;0.90;;
63034;SDS011;59750;53.356;-1.458;2023-01-19T16:47:26;6.78;;;1.25;;
63034;SDS011;59750;53.356;-1.458;2023-01-19T16:49:52;4.35;;;1.25;;
63034;SDS011;59750;53.356;-1.458;2023-01-19T16:52:18;2.58;;;1.15;;
63034;SDS011;59750;53.356;-1.458;2023-01-19T16:54:45;4.00;;;1.23;;
63034;SDS011;59750;53.356;-1.458;2023-01-19T16:57:12;3.90;;;1.25;;
63034;SDS011;59750;53.356;-1.458;2023-01-19T16:59:39;6.55;;;1.45;;
63034;SDS011;59750;53.356;-1.458;2023-01-19T17:02:05;4.95;;;1.30;;
63034;SDS011;59750;53.356;-1.458;2023-01-19T17:04:32;3.65;;;1.45;;